Radiosonde details



Informationen :

Serial : D26003305
Type : Graw DFM
Frequency : 403.010MHz
Launchsite : Tampa Bay Area
Nearest town : Indian Rocks Beach, US (49.5km)

Altitude (Max) : 33832m at 2026-09-03 13:09:57
Speed (Max) : 117km/h at altitude 31625m

Average speed : 42km/h
Average ascent rate : 5m/s
Average descent rate : -11m/s
Ascent rate (Max) : 14.0m/s
Descent rate (Max): -117.2m/s

First frame :
ARGUS2 at 2026-09-03 11:24:46 at altitude 1331m (OG: 1289m)
Last frame :
ARGUS2 at 2026-09-03 14:00:53 at altitude 4604m (OG: 4562m)

Flighttime : 2h36m7s
Ascent time : 1h45m11s
Descent time : 50m56s
Uptime : -
Killtimer : -

Distance (Straight line distance): 95km

Distance (Route):


Frames : 387


Measurement :

Temperature : 0.8°C
Humidity : 0%
Pressure : 0hPa


Vertical profile (SkewT) :


Elevation profile :



Receiving stations :


Receiver Frames First received Last received
ARGUS2 387 2026-09-03 11:24:46 2026-09-03 14:00:53

Share per receiver :



All frames :


Receiver Date Latitude Longitude Direction Speed Altitude Climb Temperature Humidity Pressure Voltage Killtimer Uptime BKT XDATA
ARGUS22026-09-03 14:00:5327.86995-83.35513293°20km/h4604m-6.0m/s0.8°C0%0hPa0V00:00:0000:00:0000:00:00
ARGUS22026-09-03 14:00:3227.86908-83.35383317°31km/h4728m-6.2m/s0.2°C0%0hPa0V00:00:0000:00:0000:00:00
ARGUS22026-09-03 14:00:0527.86801-83.35217291°26km/h4894m-6.2m/s-0.5°C0%0hPa0V00:00:0000:00:0000:00:00
ARGUS22026-09-03 13:55:3427.86355-83.32720277°27km/h6619m-5.9m/s-10.1°C0%0hPa0V00:00:0000:00:0000:00:00
ARGUS22026-09-03 13:55:1127.86306-83.32535299°22km/h6756m-6.2m/s-9.9°C0%0hPa0V00:00:0000:00:0000:00:00
ARGUS22026-09-03 13:54:5027.86252-83.32378305°26km/h6888m-6.2m/s-11.1°C0%0hPa0V00:00:0000:00:0000:00:00
ARGUS22026-09-03 13:53:2727.85987-83.31725303°38km/h7431m-6.5m/s-14.1°C0%0hPa0V00:00:0000:00:0000:00:00
ARGUS22026-09-03 13:53:0627.85892-83.31570304°35km/h7574m-6.5m/s-15.3°C0%0hPa0V00:00:0000:00:0000:00:00
ARGUS22026-09-03 13:52:4227.85766-83.31400312°37km/h7748m-7.0m/s-16.5°C0%0hPa0V00:00:0000:00:0000:00:00
ARGUS22026-09-03 13:52:1827.85619-83.31223306°37km/h7911m-7.1m/s-17.2°C0%0hPa0V00:00:0000:00:0000:00:00
ARGUS22026-09-03 13:51:5827.85521-83.31061310°31km/h8053m-7.2m/s-17.6°C0%0hPa0V00:00:0000:00:0000:00:00
ARGUS22026-09-03 13:51:3827.85425-83.30897308°33km/h8204m-7.4m/s-18.7°C0%0hPa0V00:00:0000:00:0000:00:00
ARGUS22026-09-03 13:51:1727.85341-83.30730298°31km/h8353m-7.5m/s-19.9°C0%0hPa0V00:00:0000:00:0000:00:00
ARGUS22026-09-03 13:50:5627.85276-83.30540294°31km/h8512m-7.7m/s-21.0°C0%0hPa0V00:00:0000:00:0000:00:00
ARGUS22026-09-03 13:50:3627.85238-83.30376280°24km/h8668m-7.9m/s-21.9°C0%0hPa0V00:00:0000:00:0000:00:00
ARGUS22026-09-03 13:50:1627.85216-83.30215273°29km/h8832m-8.0m/s-23.0°C0%0hPa0V00:00:0000:00:0000:00:00
ARGUS22026-09-03 13:49:5527.85201-83.30049278°26km/h8990m-8.0m/s-24.0°C0%0hPa0V00:00:0000:00:0000:00:00
ARGUS22026-09-03 13:49:3527.85190-83.29882271°29km/h9155m-7.9m/s-25.4°C0%0hPa0V00:00:0000:00:0000:00:00
ARGUS22026-09-03 13:49:1427.85177-83.29688271°35km/h9313m-7.9m/s-26.6°C0%0hPa0V00:00:0000:00:0000:00:00
ARGUS22026-09-03 13:48:5427.85173-83.29444269°44km/h9476m-7.8m/s-27.9°C0%0hPa0V00:00:0000:00:0000:00:00
ARGUS22026-09-03 13:48:3327.85158-83.29188277°46km/h9641m-8.0m/s-29.3°C0%0hPa0V00:00:0000:00:0000:00:00
ARGUS22026-09-03 13:48:1227.85131-83.28950277°42km/h9802m-7.9m/s-30.7°C0%0hPa0V00:00:0000:00:0000:00:00
ARGUS22026-09-03 13:47:5127.85099-83.28698278°44km/h9970m-7.9m/s-31.9°C0%0hPa0V00:00:0000:00:0000:00:00
ARGUS22026-09-03 13:47:3127.85071-83.28464281°42km/h10130m-7.9m/s-33.1°C0%0hPa0V00:00:0000:00:0000:00:00
ARGUS22026-09-03 13:46:5027.84975-83.28009291°42km/h10458m-8.1m/s-35.6°C0%0hPa0V00:00:0000:00:0000:00:00
ARGUS22026-09-03 13:46:2927.84880-83.27758293°47km/h10635m-8.3m/s-36.9°C0%0hPa0V00:00:0000:00:0000:00:00
ARGUS22026-09-03 13:46:0927.84771-83.27520295°46km/h10798m-8.0m/s-38.0°C0%0hPa0V00:00:0000:00:0000:00:00
ARGUS22026-09-03 13:45:4927.84644-83.27280308°46km/h10963m-7.8m/s-39.5°C0%0hPa0V00:00:0000:00:0000:00:00
ARGUS22026-09-03 13:45:2827.84517-83.27064295°46km/h11119m-7.8m/s-40.8°C0%0hPa0V00:00:0000:00:0000:00:00
ARGUS22026-09-03 13:45:0827.84395-83.26841310°40km/h11283m-7.9m/s-42.1°C0%0hPa0V00:00:0000:00:0000:00:00
ARGUS22026-09-03 13:44:4727.84283-83.26642301°44km/h11439m-7.8m/s-43.5°C0%0hPa0V00:00:0000:00:0000:00:00
ARGUS22026-09-03 13:44:2727.84143-83.26418305°44km/h11605m-7.8m/s-44.8°C0%0hPa0V00:00:0000:00:0000:00:00
ARGUS22026-09-03 13:44:0627.84009-83.26167304°55km/h11766m-8.3m/s-46.1°C0%0hPa0V00:00:0000:00:0000:00:00
ARGUS22026-09-03 13:43:4627.83871-83.25902300°55km/h11939m-8.4m/s-47.5°C0%0hPa0V00:00:0000:00:0000:00:00
ARGUS22026-09-03 13:43:2627.83730-83.25668302°44km/h12107m-8.7m/s-48.9°C0%0hPa0V00:00:0000:00:0000:00:00
ARGUS22026-09-03 13:43:0527.83559-83.25429318°51km/h12284m-8.4m/s-50.3°C0%0hPa0V00:00:0000:00:0000:00:00
ARGUS22026-09-03 13:42:4327.83362-83.25197321°53km/h12460m-8.2m/s-51.8°C0%0hPa0V00:00:0000:00:0000:00:00
ARGUS22026-09-03 13:42:2327.83167-83.24988313°49km/h12628m-8.5m/s-53.1°C0%0hPa0V00:00:0000:00:0000:00:00
ARGUS22026-09-03 13:42:0327.82965-83.24767314°57km/h12805m-8.6m/s-54.5°C0%0hPa0V00:00:0000:00:0000:00:00
ARGUS22026-09-03 13:41:4227.82767-83.24575316°57km/h12975m-8.5m/s-55.6°C0%0hPa0V00:00:0000:00:0000:00:00
ARGUS22026-09-03 13:41:2227.82558-83.24349322°57km/h13158m-9.1m/s-56.9°C0%0hPa0V00:00:0000:00:0000:00:00
ARGUS22026-09-03 13:41:0127.82371-83.24136314°62km/h13336m-8.7m/s-58.3°C0%0hPa0V00:00:0000:00:0000:00:00
ARGUS22026-09-03 13:40:4027.82124-83.23920319°62km/h13519m-8.9m/s-59.4°C0%0hPa0V00:00:0000:00:0000:00:00
ARGUS22026-09-03 13:40:2027.81869-83.23733321°51km/h13701m-9.4m/s-60.5°C0%0hPa0V00:00:0000:00:0000:00:00
ARGUS22026-09-03 13:39:5927.81606-83.23509326°51km/h13904m-9.9m/s-61.7°C0%0hPa0V00:00:0000:00:0000:00:00
ARGUS22026-09-03 13:39:3927.81436-83.23351307°38km/h14095m-9.3m/s-62.0°C0%0hPa0V00:00:0000:00:0000:00:00
ARGUS22026-09-03 13:39:1827.81318-83.23197306°27km/h14296m-11.1m/s-63.2°C0%0hPa0V00:00:0000:00:0000:00:00
ARGUS22026-09-03 13:38:5827.81317-83.23058243°26km/h14494m-9.9m/s-64.4°C0%0hPa0V00:00:0000:00:0000:00:00
ARGUS22026-09-03 13:38:3827.81388-83.22895244°33km/h14700m-9.6m/s-65.8°C0%0hPa0V00:00:0000:00:0000:00:00
ARGUS22026-09-03 13:38:1727.81507-83.22728225°46km/h14897m-10.4m/s-67.4°C0%0hPa0V00:00:0000:00:0000:00:00
ARGUS22026-09-03 13:37:5727.81650-83.22522237°40km/h15101m-9.6m/s-69.1°C0%0hPa0V00:00:0000:00:0000:00:00
ARGUS22026-09-03 13:37:3527.81739-83.22216275°68km/h15304m-9.8m/s-67.8°C0%0hPa0V00:00:0000:00:0000:00:00
ARGUS22026-09-03 13:37:1527.81693-83.21857291°58km/h15500m-10.6m/s-67.9°C0%0hPa0V00:00:0000:00:0000:00:00
ARGUS22026-09-03 13:36:5527.81624-83.21576275°42km/h15714m-10.9m/s-67.2°C0%0hPa0V00:00:0000:00:0000:00:00
ARGUS22026-09-03 13:36:3427.81617-83.21330284°38km/h15929m-10.6m/s-66.4°C0%0hPa0V00:00:0000:00:0000:00:00
ARGUS22026-09-03 13:36:1327.81569-83.21084282°44km/h16163m-11.2m/s-67.2°C0%0hPa0V00:00:0000:00:0000:00:00
ARGUS22026-09-03 13:35:5327.81521-83.20890284°27km/h16389m-11.6m/s-67.1°C0%0hPa0V00:00:0000:00:0000:00:00
ARGUS22026-09-03 13:35:3227.81500-83.20749272°26km/h16621m-10.9m/s-68.0°C0%0hPa0V00:00:0000:00:0000:00:00
ARGUS22026-09-03 13:35:1227.81517-83.20571261°44km/h16802m-8.1m/s-68.6°C0%0hPa0V00:00:0000:00:0000:00:00
ARGUS22026-09-03 13:34:5227.81585-83.20349247°37km/h16978m-8.2m/s-67.9°C0%0hPa0V00:00:0000:00:0000:00:00
ARGUS22026-09-03 13:34:3127.81607-83.20170278°31km/h17155m-8.7m/s-68.8°C0%0hPa0V00:00:0000:00:0000:00:00
ARGUS22026-09-03 13:34:1027.81566-83.19997294°27km/h17341m-9.0m/s-69.6°C0%0hPa0V00:00:0000:00:0000:00:00
ARGUS22026-09-03 13:33:5027.81552-83.19823255°37km/h17521m-8.9m/s-67.9°C0%0hPa0V00:00:0000:00:0000:00:00
ARGUS22026-09-03 13:33:3027.81608-83.19641264°29km/h17713m-8.8m/s-68.4°C0%0hPa0V00:00:0000:00:0000:00:00
ARGUS22026-09-03 13:33:0927.81651-83.19482251°35km/h17891m-9.0m/s-67.5°C0%0hPa0V00:00:0000:00:0000:00:00
ARGUS22026-09-03 13:32:4927.81754-83.19275238°40km/h18086m-9.5m/s-67.8°C0%0hPa0V00:00:0000:00:0000:00:00
ARGUS22026-09-03 13:32:2727.81877-83.19004256°55km/h18285m-9.1m/s-65.4°C0%0hPa0V00:00:0000:00:0000:00:00
ARGUS22026-09-03 13:32:0727.81890-83.18743270°38km/h18473m-9.2m/s-64.5°C0%0hPa0V00:00:0000:00:0000:00:00
ARGUS22026-09-03 13:31:4627.81886-83.18542285°31km/h18681m-9.8m/s-64.1°C0%0hPa0V00:00:0000:00:0000:00:00
ARGUS22026-09-03 13:31:2627.81853-83.18406268°16km/h18895m-7.0m/s-63.3°C0%0hPa0V00:00:0000:00:0000:00:00
ARGUS22026-09-03 13:31:0527.81866-83.18316277°20km/h19095m-12.2m/s-63.3°C0%0hPa0V00:00:0000:00:0000:00:00
ARGUS22026-09-03 13:30:4527.81895-83.18147261°35km/h19245m-6.2m/s-62.7°C0%0hPa0V00:00:0000:00:0000:00:00
ARGUS22026-09-03 13:30:2527.81917-83.17931266°29km/h19384m-6.7m/s-62.4°C0%0hPa0V00:00:0000:00:0000:00:00
ARGUS22026-09-03 13:30:0427.81915-83.17780270°20km/h19522m-6.6m/s-61.9°C0%0hPa0V00:00:0000:00:0000:00:00
ARGUS22026-09-03 13:29:4327.81938-83.17643253°20km/h19669m-7.4m/s-61.9°C0%0hPa0V00:00:0000:00:0000:00:00
ARGUS22026-09-03 13:29:2327.82003-83.17534225°26km/h19811m-6.9m/s-61.8°C0%0hPa0V00:00:0000:00:0000:00:00
ARGUS22026-09-03 13:29:0327.82146-83.17434223°35km/h19962m-7.0m/s-61.4°C0%0hPa0V00:00:0000:00:0000:00:00
ARGUS22026-09-03 13:28:4327.82279-83.17299222°37km/h20103m-6.8m/s-61.0°C0%0hPa0V00:00:0000:00:0000:00:00
ARGUS22026-09-03 13:28:2227.82422-83.17143237°35km/h20249m-6.7m/s-60.8°C0%0hPa0V00:00:0000:00:0000:00:00
ARGUS22026-09-03 13:28:0127.82505-83.16972248°33km/h20385m-6.9m/s-60.9°C0%0hPa0V00:00:0000:00:0000:00:00
ARGUS22026-09-03 13:27:4127.82518-83.16775282°38km/h20532m-7.6m/s-60.1°C0%0hPa0V00:00:0000:00:0000:00:00
ARGUS22026-09-03 13:27:1927.82468-83.16555292°35km/h20682m-6.9m/s-60.1°C0%0hPa0V00:00:0000:00:0000:00:00
ARGUS22026-09-03 13:26:5927.82382-83.16348296°38km/h20828m-7.5m/s-60.4°C0%0hPa0V00:00:0000:00:0000:00:00
ARGUS22026-09-03 13:26:3827.82353-83.16127261°42km/h20984m-7.2m/s-60.0°C0%0hPa0V00:00:0000:00:0000:00:00
ARGUS22026-09-03 13:26:1827.82429-83.15873252°57km/h21135m-7.7m/s-59.8°C0%0hPa0V00:00:0000:00:0000:00:00
ARGUS22026-09-03 13:25:5727.82502-83.15527271°55km/h21298m-8.0m/s-59.2°C0%0hPa0V00:00:0000:00:0000:00:00
ARGUS22026-09-03 13:25:3727.82475-83.15217282°55km/h21460m-8.0m/s-59.2°C0%0hPa0V00:00:0000:00:0000:00:00
ARGUS22026-09-03 13:25:1627.82429-83.14919275°49km/h21634m-9.6m/s-60.4°C0%0hPa0V00:00:0000:00:0000:00:00
ARGUS22026-09-03 13:24:5627.82393-83.14659282°38km/h21811m-8.4m/s-60.3°C0%0hPa0V00:00:0000:00:0000:00:00
ARGUS22026-09-03 13:24:3627.82360-83.14418270°40km/h22001m-8.9m/s-59.9°C0%0hPa0V00:00:0000:00:0000:00:00
ARGUS22026-09-03 13:23:5427.82302-83.13856278°37km/h22361m-8.8m/s-57.0°C0%0hPa0V00:00:0000:00:0000:00:00
ARGUS22026-09-03 13:23:3427.82284-83.13673278°31km/h22541m-8.9m/s-55.6°C0%0hPa0V00:00:0000:00:0000:00:00
ARGUS22026-09-03 13:23:1427.82227-83.13465284°47km/h22727m-9.1m/s-54.5°C0%0hPa0V00:00:0000:00:0000:00:00
ARGUS22026-09-03 13:22:5327.82145-83.13252298°37km/h22911m-9.0m/s-54.2°C0%0hPa0V00:00:0000:00:0000:00:00
ARGUS22026-09-03 13:22:3327.82112-83.13060270°35km/h23102m-9.1m/s-53.3°C0%0hPa0V00:00:0000:00:0000:00:00
ARGUS22026-09-03 13:22:1227.82166-83.12864245°44km/h23287m-9.1m/s-53.5°C0%0hPa0V00:00:0000:00:0000:00:00
ARGUS22026-09-03 13:21:5227.82246-83.12688246°29km/h23488m-9.7m/s-53.6°C0%0hPa0V00:00:0000:00:0000:00:00
ARGUS22026-09-03 13:21:3027.82286-83.12504271°35km/h23689m-9.5m/s-53.3°C0%0hPa0V00:00:0000:00:0000:00:00
ARGUS22026-09-03 13:21:1027.82271-83.12267283°46km/h23889m-10.1m/s-53.6°C0%0hPa0V00:00:0000:00:0000:00:00
ARGUS22026-09-03 13:20:5027.82158-83.11992294°49km/h24103m-10.4m/s-53.9°C0%0hPa0V00:00:0000:00:0000:00:00
ARGUS22026-09-03 13:20:0827.82069-83.11453282°51km/h24525m-10.5m/s-52.2°C0%0hPa0V00:00:0000:00:0000:00:00
ARGUS22026-09-03 13:19:4827.82049-83.11147272°53km/h24730m-10.6m/s-51.5°C0%0hPa0V00:00:0000:00:0000:00:00
ARGUS22026-09-03 13:19:2827.82030-83.10866281°46km/h24945m-10.5m/s-51.8°C0%0hPa0V00:00:0000:00:0000:00:00
ARGUS22026-09-03 13:19:0727.82027-83.10592258°55km/h25152m-10.6m/s-51.6°C0%0hPa0V00:00:0000:00:0000:00:00
ARGUS22026-09-03 13:18:4727.82138-83.10241255°62km/h25374m-11.0m/s-51.4°C0%0hPa0V00:00:0000:00:0000:00:00
ARGUS22026-09-03 13:18:2627.82203-83.09949264°46km/h25592m-11.4m/s-51.7°C0%0hPa0V00:00:0000:00:0000:00:00
ARGUS22026-09-03 13:18:0627.82210-83.09695262°46km/h25830m-11.4m/s-51.7°C0%0hPa0V00:00:0000:00:0000:00:00
ARGUS22026-09-03 13:17:4527.82260-83.09404256°64km/h26063m-12.1m/s-51.8°C0%0hPa0V00:00:0000:00:0000:00:00
ARGUS22026-09-03 13:17:2527.82354-83.09068256°60km/h26319m-12.6m/s-52.6°C0%0hPa0V00:00:0000:00:0000:00:00
ARGUS22026-09-03 13:17:0427.82434-83.08741260°60km/h26574m-13.0m/s-51.8°C0%0hPa0V00:00:0000:00:0000:00:00
ARGUS22026-09-03 13:16:4427.82495-83.08352260°62km/h26848m-13.3m/s-50.4°C0%0hPa0V00:00:0000:00:0000:00:00
ARGUS22026-09-03 13:16:2227.82559-83.07999267°62km/h27128m-13.5m/s-48.7°C0%0hPa0V00:00:0000:00:0000:00:00
ARGUS22026-09-03 13:16:0227.82580-83.07642270°62km/h27398m-13.8m/s-47.0°C0%0hPa0V00:00:0000:00:0000:00:00
ARGUS22026-09-03 13:15:4227.82554-83.07225278°71km/h27683m-14.1m/s-45.3°C0%0hPa0V00:00:0000:00:0000:00:00
ARGUS22026-09-03 13:15:2127.82580-83.06838264°64km/h27956m-13.8m/s-43.7°C0%0hPa0V00:00:0000:00:0000:00:00
ARGUS22026-09-03 13:15:0027.82597-83.06452256°75km/h28236m-13.5m/s-43.4°C0%0hPa0V00:00:0000:00:0000:00:00
ARGUS22026-09-03 13:14:3927.82588-83.06054278°60km/h28516m-13.5m/s-42.9°C0%0hPa0V00:00:0000:00:0000:00:00
ARGUS22026-09-03 13:13:5627.82333-83.05372294°55km/h29099m-14.5m/s-42.9°C0%0hPa0V00:00:0000:00:0000:00:00
ARGUS22026-09-03 13:13:3527.82228-83.05070296°53km/h29417m-15.0m/s-43.5°C0%0hPa0V00:00:0000:00:0000:00:00
ARGUS22026-09-03 13:13:1427.82177-83.04810264°38km/h29721m-15.6m/s-43.0°C0%0hPa0V00:00:0000:00:0000:00:00
ARGUS22026-09-03 13:12:5327.82252-83.04561232°42km/h30050m-16.1m/s-42.2°C0%0hPa0V00:00:0000:00:0000:00:00
ARGUS22026-09-03 13:12:3327.82379-83.04323256°51km/h30376m-16.6m/s-42.2°C0%0hPa0V00:00:0000:00:0000:00:00
ARGUS22026-09-03 13:12:1327.82409-83.03923275°71km/h30731m-17.2m/s-42.5°C0%0hPa0V00:00:0000:00:0000:00:00
ARGUS22026-09-03 13:11:5127.82351-83.03541283°55km/h31104m-18.8m/s-40.1°C0%0hPa0V00:00:0000:00:0000:00:00
ARGUS22026-09-03 13:11:3027.82219-83.03220308°68km/h31584m-18.6m/s-41.2°C0%0hPa0V00:00:0000:00:0000:00:00
ARGUS22026-09-03 13:11:0427.81934-83.02808302°75km/h32228m-38.8m/s-41.6°C0%0hPa0V00:00:0000:00:0000:00:00
ARGUS22026-09-03 13:10:4127.81831-83.02570296°106km/h32810m-18.7m/s-40.5°C0%0hPa0V00:00:0000:00:0000:00:00
ARGUS22026-09-03 13:10:1827.81808-83.02203215°46km/h33344m-23.7m/s-39.5°C0%0hPa0V00:00:0000:00:0000:00:00
ARGUS22026-09-03 13:09:5727.81710-83.01963318°77km/h33832m-23.8m/s-35.8°C0%0hPa0V00:00:0000:00:0000:00:00
ARGUS22026-09-03 13:07:3527.81545-83.01479260°44km/h33750m14.0m/s-36.1°C0%0hPa0V00:00:0000:00:0000:00:00
ARGUS22026-09-03 13:07:1427.81460-83.01249231°40km/h33616m11.7m/s0°C0%0hPa0V00:00:0000:00:0000:00:00
ARGUS22026-09-03 13:06:1927.81183-83.00428290°93km/h33264m2.3m/s-40.2°C0%0hPa0V00:00:0000:00:0000:00:00
ARGUS22026-09-03 13:05:5627.81124-83.00130259°51km/h33156m10.6m/s-40.7°C0%0hPa0V00:00:0000:00:0000:00:00
ARGUS22026-09-03 13:03:3827.80745-82.98170280°75km/h32243m8.6m/s-40.9°C0%0hPa0V00:00:0000:00:0000:00:00
ARGUS22026-09-03 13:03:0327.80536-82.97777306°102km/h32017m5.5m/s-40.5°C0%0hPa0V00:00:0000:00:0000:00:00
ARGUS22026-09-03 13:02:3727.80208-82.97278325°82km/h31774m7.2m/s-39.7°C0%0hPa0V00:00:0000:00:0000:00:00
ARGUS22026-09-03 13:02:1227.79993-82.96916304°115km/h31625m3.8m/s-39.2°C0%0hPa0V00:00:0000:00:0000:00:00
ARGUS22026-09-03 13:01:3127.79704-82.96190287°73km/h31319m6.4m/s-38.4°C0%0hPa0V00:00:0000:00:0000:00:00
ARGUS22026-09-03 13:01:1027.79628-82.95856268°37km/h31196m0.3m/s-38.2°C0%0hPa0V00:00:0000:00:0000:00:00
ARGUS22026-09-03 13:00:5027.79571-82.95498286°62km/h31067m4.3m/s-39.1°C0%0hPa0V00:00:0000:00:0000:00:00
ARGUS22026-09-03 13:00:2927.79537-82.95158259°53km/h30956m1.2m/s-41.2°C0%0hPa0V00:00:0000:00:0000:00:00
ARGUS22026-09-03 13:00:0927.79526-82.94743273°29km/h30845m4.2m/s-42.5°C0%0hPa0V00:00:0000:00:0000:00:00
ARGUS22026-09-03 12:59:4727.79571-82.94376257°53km/h30734m2.2m/s-42.8°C0%0hPa0V00:00:0000:00:0000:00:00
ARGUS22026-09-03 12:59:2627.79640-82.93926264°88km/h30624m3.3m/s-43.3°C0%0hPa0V00:00:0000:00:0000:00:00
ARGUS22026-09-03 12:59:0427.79744-82.93564248°71km/h30504m9.4m/s-42.9°C0%0hPa0V00:00:0000:00:0000:00:00
ARGUS22026-09-03 12:58:4427.79893-82.93234225°46km/h30368m4.4m/s-42.6°C0%0hPa0V00:00:0000:00:0000:00:00
ARGUS22026-09-03 12:58:2027.80079-82.92980217°37km/h30230m10.4m/s-41.8°C0%0hPa0V00:00:0000:00:0000:00:00
ARGUS22026-09-03 12:58:0027.80288-82.92783242°55km/h30080m3.1m/s-42.7°C0%0hPa0V00:00:0000:00:0000:00:00
ARGUS22026-09-03 12:57:3927.80414-82.92553215°42km/h29933m4.4m/s-42.8°C0%0hPa0V00:00:0000:00:0000:00:00
ARGUS22026-09-03 12:57:1927.80477-82.92287250°40km/h29775m11.0m/s-42.3°C0%0hPa0V00:00:0000:00:0000:00:00
ARGUS22026-09-03 12:56:5827.80490-82.92090289°44km/h29630m11.3m/s-42.3°C0%0hPa0V00:00:0000:00:0000:00:00
ARGUS22026-09-03 12:56:3827.80410-82.91814292°31km/h29482m10.2m/s-42.8°C0%0hPa0V00:00:0000:00:0000:00:00
ARGUS22026-09-03 12:56:1427.80309-82.91514275°47km/h29321m5.7m/s-42.1°C0%0hPa0V00:00:0000:00:0000:00:00
ARGUS22026-09-03 12:55:2927.80027-82.90885270°31km/h29033m7.5m/s-41.5°C0%0hPa0V00:00:0000:00:0000:00:00
ARGUS22026-09-03 12:55:0827.79888-82.90643326°68km/h28907m4.2m/s-41.4°C0%0hPa0V00:00:0000:00:0000:00:00
ARGUS22026-09-03 12:54:4827.79732-82.90343299°77km/h28774m6.6m/s-42.7°C0%0hPa0V00:00:0000:00:0000:00:00
ARGUS22026-09-03 12:54:2627.79605-82.89999282°73km/h28648m9.0m/s-43.3°C0%0hPa0V00:00:0000:00:0000:00:00
ARGUS22026-09-03 12:54:0327.79512-82.89565298°78km/h28506m6.9m/s-43.6°C0%0hPa0V00:00:0000:00:0000:00:00
ARGUS22026-09-03 12:53:4327.79480-82.89198256°58km/h28381m4.0m/s-44.8°C0%0hPa0V00:00:0000:00:0000:00:00
ARGUS22026-09-03 12:53:2227.79447-82.88806273°53km/h28242m5.6m/s-44.8°C0%0hPa0V00:00:0000:00:0000:00:00
ARGUS22026-09-03 12:53:0127.79389-82.88429263°49km/h28106m8.2m/s-45.6°C0%0hPa0V00:00:0000:00:0000:00:00
ARGUS22026-09-03 12:52:4127.79360-82.87999277°69km/h27962m9.1m/s-46.4°C0%0hPa0V00:00:0000:00:0000:00:00
ARGUS22026-09-03 12:52:2027.79277-82.87583281°64km/h27819m9.7m/s-47.5°C0%0hPa0V00:00:0000:00:0000:00:00
ARGUS22026-09-03 12:52:0027.79197-82.87158276°78km/h27674m7.7m/s-48.3°C0%0hPa0V00:00:0000:00:0000:00:00
ARGUS22026-09-03 12:51:3927.79140-82.86745267°69km/h27542m7.2m/s-48.7°C0%0hPa0V00:00:0000:00:0000:00:00
ARGUS22026-09-03 12:51:1727.79113-82.86308270°53km/h27390m7.5m/s-49.7°C0%0hPa0V00:00:0000:00:0000:00:00
ARGUS22026-09-03 12:50:5627.79136-82.85934272°58km/h27266m7.6m/s-50.1°C0%0hPa0V00:00:0000:00:0000:00:00
ARGUS22026-09-03 12:50:3627.79170-82.85533246°53km/h27142m5.7m/s-50.4°C0%0hPa0V00:00:0000:00:0000:00:00
ARGUS22026-09-03 12:50:1527.79206-82.85197260°46km/h27032m6.1m/s-50.9°C0%0hPa0V00:00:0000:00:0000:00:00
ARGUS22026-09-03 12:49:5527.79257-82.84853257°57km/h26917m7.6m/s-51.4°C0%0hPa0V00:00:0000:00:0000:00:00
ARGUS22026-09-03 12:49:3327.79300-82.84465277°66km/h26802m5.9m/s-52.5°C0%0hPa0V00:00:0000:00:0000:00:00
ARGUS22026-09-03 12:49:1327.79335-82.84110261°55km/h26684m6.5m/s-53.0°C0%0hPa0V00:00:0000:00:0000:00:00
ARGUS22026-09-03 12:48:5227.79395-82.83799233°51km/h26554m7.4m/s-53.3°C0%0hPa0V00:00:0000:00:0000:00:00
ARGUS22026-09-03 12:48:3227.79484-82.83536235°60km/h26429m7.1m/s-53.2°C0%0hPa0V00:00:0000:00:0000:00:00
ARGUS22026-09-03 12:48:1127.79583-82.83230236°58km/h26294m4.1m/s-52.4°C0%0hPa0V00:00:0000:00:0000:00:00
ARGUS22026-09-03 12:47:5127.79669-82.82975231°44km/h26164m2.7m/s-52.1°C0%0hPa0V00:00:0000:00:0000:00:00
ARGUS22026-09-03 12:47:3027.79745-82.82691262°44km/h26025m7.8m/s-51.7°C0%0hPa0V00:00:0000:00:0000:00:00
ARGUS22026-09-03 12:47:1027.79770-82.82462276°38km/h25896m7.6m/s-51.4°C0%0hPa0V00:00:0000:00:0000:00:00
ARGUS22026-09-03 12:46:5027.79751-82.82254294°55km/h25762m6.6m/s-51.1°C0%0hPa0V00:00:0000:00:0000:00:00
ARGUS22026-09-03 12:46:2927.79725-82.82063288°47km/h25643m6.4m/s-51.0°C0%0hPa0V00:00:0000:00:0000:00:00
ARGUS22026-09-03 12:46:0927.79683-82.81878301°37km/h25518m4.3m/s-50.8°C0%0hPa0V00:00:0000:00:0000:00:00
ARGUS22026-09-03 12:45:4827.79706-82.81668280°37km/h25402m6.0m/s-50.2°C0%0hPa0V00:00:0000:00:0000:00:00
ARGUS22026-09-03 12:45:2827.79787-82.81403254°64km/h25280m6.5m/s-50.2°C0%0hPa0V00:00:0000:00:0000:00:00
ARGUS22026-09-03 12:45:0627.79921-82.81081236°64km/h25163m6.8m/s-50.0°C0%0hPa0V00:00:0000:00:0000:00:00
ARGUS22026-09-03 12:44:4627.80057-82.80817241°47km/h25046m5.8m/s-49.6°C0%0hPa0V00:00:0000:00:0000:00:00
ARGUS22026-09-03 12:44:2527.80152-82.80563286°33km/h24930m6.4m/s-49.6°C0%0hPa0V00:00:0000:00:0000:00:00
ARGUS22026-09-03 12:44:0527.80173-82.80341279°55km/h24815m5.0m/s-49.8°C0%0hPa0V00:00:0000:00:0000:00:00
ARGUS22026-09-03 12:43:4427.80151-82.80108265°37km/h24682m4.9m/s-50.0°C0%0hPa0V00:00:0000:00:0000:00:00
ARGUS22026-09-03 12:43:2427.80155-82.79868268°58km/h24556m7.4m/s-49.7°C0%0hPa0V00:00:0000:00:0000:00:00
ARGUS22026-09-03 12:43:0427.80174-82.79565270°68km/h24425m5.6m/s-50.0°C0%0hPa0V00:00:0000:00:0000:00:00
ARGUS22026-09-03 12:42:4327.80133-82.79275272°53km/h24300m7.8m/s-50.5°C0%0hPa0V00:00:0000:00:0000:00:00
ARGUS22026-09-03 12:42:2327.80118-82.78975258°46km/h24166m4.7m/s-51.1°C0%0hPa0V00:00:0000:00:0000:00:00
ARGUS22026-09-03 12:42:0227.80089-82.78711280°38km/h24047m6.1m/s-51.9°C0%0hPa0V00:00:0000:00:0000:00:00
ARGUS22026-09-03 12:41:4227.80007-82.78384306°57km/h23923m6.2m/s-52.3°C0%0hPa0V00:00:0000:00:0000:00:00
ARGUS22026-09-03 12:41:2127.79947-82.78060274°53km/h23815m5.8m/s-53.3°C0%0hPa0V00:00:0000:00:0000:00:00
ARGUS22026-09-03 12:41:0027.79939-82.77773273°37km/h23696m5.9m/s-53.7°C0%0hPa0V00:00:0000:00:0000:00:00
ARGUS22026-09-03 12:40:4027.79957-82.77553255°35km/h23582m6.9m/s-54.3°C0%0hPa0V00:00:0000:00:0000:00:00
ARGUS22026-09-03 12:40:2027.80007-82.77342256°40km/h23464m6.6m/s-54.8°C0%0hPa0V00:00:0000:00:0000:00:00
ARGUS22026-09-03 12:39:5927.80075-82.77093254°49km/h23349m4.1m/s-55.0°C0%0hPa0V00:00:0000:00:0000:00:00
ARGUS22026-09-03 12:39:3927.80099-82.76839277°51km/h23235m5.9m/s-55.0°C0%0hPa0V00:00:0000:00:0000:00:00
ARGUS22026-09-03 12:39:1727.80064-82.76596294°35km/h23113m5.2m/s-56.1°C0%0hPa0V00:00:0000:00:0000:00:00
ARGUS22026-09-03 12:38:5727.80018-82.76339282°47km/h23001m5.8m/s-56.9°C0%0hPa0V00:00:0000:00:0000:00:00
ARGUS22026-09-03 12:38:3627.79968-82.76057286°60km/h22884m5.9m/s-57.3°C0%0hPa0V00:00:0000:00:0000:00:00
ARGUS22026-09-03 12:38:1627.79906-82.75822274°40km/h22778m7.0m/s-57.8°C0%0hPa0V00:00:0000:00:0000:00:00
ARGUS22026-09-03 12:37:5527.79882-82.75601275°37km/h22661m6.6m/s-57.9°C0%0hPa0V00:00:0000:00:0000:00:00
ARGUS22026-09-03 12:37:3527.79869-82.75391281°42km/h22553m5.7m/s-58.5°C0%0hPa0V00:00:0000:00:0000:00:00
ARGUS22026-09-03 12:37:1527.79835-82.75156283°46km/h22443m6.2m/s-59.4°C0%0hPa0V00:00:0000:00:0000:00:00
ARGUS22026-09-03 12:36:5427.79808-82.74904279°53km/h22336m5.2m/s-60.0°C0%0hPa0V00:00:0000:00:0000:00:00
ARGUS22026-09-03 12:36:3427.79799-82.74564271°53km/h22224m6.0m/s-60.1°C0%0hPa0V00:00:0000:00:0000:00:00
ARGUS22026-09-03 12:36:1427.79783-82.74280268°40km/h22121m7.4m/s-60.7°C0%0hPa0V00:00:0000:00:0000:00:00
ARGUS22026-09-03 12:35:3227.79734-82.73833300°27km/h21898m6.9m/s-60.1°C0%0hPa0V00:00:0000:00:0000:00:00
ARGUS22026-09-03 12:35:1227.79670-82.73618293°37km/h21776m4.8m/s-60.0°C0%0hPa0V00:00:0000:00:0000:00:00
ARGUS22026-09-03 12:34:5127.79604-82.73363290°47km/h21657m7.2m/s-59.0°C0%0hPa0V00:00:0000:00:0000:00:00
ARGUS22026-09-03 12:34:3127.79533-82.73089307°53km/h21536m5.1m/s-59.1°C0%0hPa0V00:00:0000:00:0000:00:00
ARGUS22026-09-03 12:34:0927.79460-82.72800279°55km/h21411m5.8m/s-57.9°C0%0hPa0V00:00:0000:00:0000:00:00
ARGUS22026-09-03 12:33:4927.79425-82.72514265°44km/h21299m4.4m/s-57.1°C0%0hPa0V00:00:0000:00:0000:00:00
ARGUS22026-09-03 12:33:2927.79386-82.72203293°49km/h21188m4.4m/s-56.5°C0%0hPa0V00:00:0000:00:0000:00:00
ARGUS22026-09-03 12:33:0827.79361-82.71900270°68km/h21088m6.5m/s-56.6°C0%0hPa0V00:00:0000:00:0000:00:00
ARGUS22026-09-03 12:32:2727.79484-82.71273252°58km/h20886m4.6m/s-56.7°C0%0hPa0V00:00:0000:00:0000:00:00
ARGUS22026-09-03 12:32:0727.79630-82.70981231°53km/h20786m4.8m/s-56.5°C0%0hPa0V00:00:0000:00:0000:00:00
ARGUS22026-09-03 12:31:4627.79738-82.70750253°38km/h20690m5.1m/s-57.2°C0%0hPa0V00:00:0000:00:0000:00:00
ARGUS22026-09-03 12:31:2627.79752-82.70506272°42km/h20583m5.7m/s-57.6°C0%0hPa0V00:00:0000:00:0000:00:00
ARGUS22026-09-03 12:31:0527.79681-82.70274297°55km/h20485m6.1m/s-58.1°C0%0hPa0V00:00:0000:00:0000:00:00
ARGUS22026-09-03 12:30:4527.79584-82.70031292°44km/h20381m5.9m/s-57.8°C0%0hPa0V00:00:0000:00:0000:00:00
ARGUS22026-09-03 12:30:2427.79525-82.69803293°33km/h20282m4.0m/s-58.4°C0%0hPa0V00:00:0000:00:0000:00:00
ARGUS22026-09-03 12:30:0427.79512-82.69572257°35km/h20180m4.4m/s-60.2°C0%0hPa0V00:00:0000:00:0000:00:00
ARGUS22026-09-03 12:29:4327.79563-82.69438238°16km/h20079m4.9m/s-60.5°C0%0hPa0V00:00:0000:00:0000:00:00
ARGUS22026-09-03 12:29:2327.79616-82.69296254°26km/h19971m6.5m/s-61.6°C0%0hPa0V00:00:0000:00:0000:00:00
ARGUS22026-09-03 12:29:0127.79697-82.69191239°27km/h19860m6.0m/s-62.4°C0%0hPa0V00:00:0000:00:0000:00:00
ARGUS22026-09-03 12:28:4127.79768-82.69078260°24km/h19757m6.2m/s-62.8°C0%0hPa0V00:00:0000:00:0000:00:00
ARGUS22026-09-03 12:28:2127.79804-82.68951289°16km/h19651m5.7m/s-62.3°C0%0hPa0V00:00:0000:00:0000:00:00
ARGUS22026-09-03 12:28:0027.79812-82.68807277°22km/h19551m5.9m/s-62.2°C0%0hPa0V00:00:0000:00:0000:00:00
ARGUS22026-09-03 12:27:4027.79831-82.68672264°24km/h19452m5.0m/s-62.2°C0%0hPa0V00:00:0000:00:0000:00:00
ARGUS22026-09-03 12:27:1927.79848-82.68491279°51km/h19357m3.9m/s-63.3°C0%0hPa0V00:00:0000:00:0000:00:00
ARGUS22026-09-03 12:26:5927.79886-82.68285236°26km/h19255m4.0m/s-63.8°C0%0hPa0V00:00:0000:00:0000:00:00
ARGUS22026-09-03 12:26:3827.79959-82.68136253°24km/h19155m5.3m/s-63.7°C0%0hPa0V00:00:0000:00:0000:00:00
ARGUS22026-09-03 12:26:1627.80014-82.68030270°16km/h19045m5.9m/s-63.9°C0%0hPa0V00:00:0000:00:0000:00:00
ARGUS22026-09-03 12:25:5527.80026-82.67953280°16km/h18949m4.9m/s-63.9°C0%0hPa0V00:00:0000:00:0000:00:00
ARGUS22026-09-03 12:25:3427.80004-82.67833264°18km/h18844m5.7m/s-64.8°C0%0hPa0V00:00:0000:00:0000:00:00
ARGUS22026-09-03 12:25:1427.79982-82.67682285°37km/h18746m4.4m/s-65.0°C0%0hPa0V00:00:0000:00:0000:00:00
ARGUS22026-09-03 12:24:5427.79968-82.67511262°40km/h18641m4.9m/s-65.6°C0%0hPa0V00:00:0000:00:0000:00:00
ARGUS22026-09-03 12:24:3327.79986-82.67344270°33km/h18544m5.8m/s-64.8°C0%0hPa0V00:00:0000:00:0000:00:00
ARGUS22026-09-03 12:24:1327.79995-82.67148265°40km/h18441m5.9m/s-64.3°C0%0hPa0V00:00:0000:00:0000:00:00
ARGUS22026-09-03 12:23:5227.80017-82.66894259°58km/h18343m5.4m/s-65.7°C0%0hPa0V00:00:0000:00:0000:00:00
ARGUS22026-09-03 12:23:3227.80116-82.66622239°62km/h18238m5.9m/s-66.5°C0%0hPa0V00:00:0000:00:0000:00:00
ARGUS22026-09-03 12:23:1127.80288-82.66373235°60km/h18143m4.3m/s-67.7°C0%0hPa0V00:00:0000:00:0000:00:00
ARGUS22026-09-03 12:22:5127.80459-82.66154236°49km/h18049m6.1m/s-67.9°C0%0hPa0V00:00:0000:00:0000:00:00
ARGUS22026-09-03 12:22:2927.80592-82.65936238°55km/h17952m5.1m/s-68.4°C0%0hPa0V00:00:0000:00:0000:00:00
ARGUS22026-09-03 12:22:0927.80714-82.65770235°47km/h17862m3.5m/s-68.2°C0%0hPa0V00:00:0000:00:0000:00:00
ARGUS22026-09-03 12:21:4927.80836-82.65624244°29km/h17767m5.1m/s-67.8°C0%0hPa0V00:00:0000:00:0000:00:00
ARGUS22026-09-03 12:21:2827.80920-82.65465246°33km/h17680m4.7m/s-67.5°C0%0hPa0V00:00:0000:00:0000:00:00
ARGUS22026-09-03 12:21:0827.80975-82.65305261°26km/h17586m4.9m/s-67.1°C0%0hPa0V00:00:0000:00:0000:00:00
ARGUS22026-09-03 12:20:4727.80999-82.65122260°26km/h17491m4.9m/s-68.2°C0%0hPa0V00:00:0000:00:0000:00:00
ARGUS22026-09-03 12:20:2727.80974-82.64937286°47km/h17397m4.1m/s-69.5°C0%0hPa0V00:00:0000:00:0000:00:00
ARGUS22026-09-03 12:20:0627.80920-82.64775279°40km/h17307m4.6m/s-69.6°C0%0hPa0V00:00:0000:00:0000:00:00
ARGUS22026-09-03 12:19:4627.80893-82.64597262°24km/h17209m4.6m/s-69.1°C0%0hPa0V00:00:0000:00:0000:00:00
ARGUS22026-09-03 12:19:2627.80904-82.64417267°35km/h17118m4.2m/s-68.6°C0%0hPa0V00:00:0000:00:0000:00:00
ARGUS22026-09-03 12:19:0527.80958-82.64243257°42km/h17019m4.3m/s-68.5°C0%0hPa0V00:00:0000:00:0000:00:00
ARGUS22026-09-03 12:18:4527.81057-82.64055236°35km/h16928m4.7m/s-69.2°C0%0hPa0V00:00:0000:00:0000:00:00
ARGUS22026-09-03 12:18:2427.81132-82.63864261°47km/h16830m4.3m/s-68.7°C0%0hPa0V00:00:0000:00:0000:00:00
ARGUS22026-09-03 12:18:0427.81181-82.63693234°24km/h16734m5.0m/s-68.0°C0%0hPa0V00:00:0000:00:0000:00:00
ARGUS22026-09-03 12:17:4327.81193-82.63566288°9km/h16636m5.3m/s-68.0°C0%0hPa0V00:00:0000:00:0000:00:00
ARGUS22026-09-03 12:17:2227.81149-82.63462302°24km/h16542m4.9m/s-67.7°C0%0hPa0V00:00:0000:00:0000:00:00
ARGUS22026-09-03 12:17:0127.81095-82.63342284°24km/h16455m4.7m/s-67.2°C0%0hPa0V00:00:0000:00:0000:00:00
ARGUS22026-09-03 12:16:4127.81049-82.63188274°31km/h16366m5.4m/s-67.1°C0%0hPa0V00:00:0000:00:0000:00:00
ARGUS22026-09-03 12:16:2027.81005-82.62985274°44km/h16265m4.3m/s-67.5°C0%0hPa0V00:00:0000:00:0000:00:00
ARGUS22026-09-03 12:16:0027.80968-82.62729293°38km/h16175m4.7m/s-67.7°C0%0hPa0V00:00:0000:00:0000:00:00
ARGUS22026-09-03 12:15:3927.80919-82.62496274°44km/h16089m4.8m/s-67.5°C0%0hPa0V00:00:0000:00:0000:00:00
ARGUS22026-09-03 12:15:1927.80893-82.62272271°57km/h15994m3.6m/s-68.0°C0%0hPa0V00:00:0000:00:0000:00:00
ARGUS22026-09-03 12:14:5827.80913-82.62057272°29km/h15901m4.5m/s-67.5°C0%0hPa0V00:00:0000:00:0000:00:00
ARGUS22026-09-03 12:14:3827.80930-82.61825276°35km/h15805m6.3m/s-68.1°C0%0hPa0V00:00:0000:00:0000:00:00
ARGUS22026-09-03 12:14:1727.80899-82.61628294°37km/h15708m4.6m/s-68.6°C0%0hPa0V00:00:0000:00:0000:00:00
ARGUS22026-09-03 12:13:5727.80841-82.61371266°55km/h15606m5.2m/s-68.5°C0%0hPa0V00:00:0000:00:0000:00:00
ARGUS22026-09-03 12:13:3627.80834-82.61091256°60km/h15507m4.1m/s-67.7°C0%0hPa0V00:00:0000:00:0000:00:00
ARGUS22026-09-03 12:13:1627.80847-82.60776267°73km/h15402m4.4m/s-67.4°C0%0hPa0V00:00:0000:00:0000:00:00
ARGUS22026-09-03 12:12:5527.80902-82.60433258°58km/h15305m3.9m/s-68.0°C0%0hPa0V00:00:0000:00:0000:00:00
ARGUS22026-09-03 12:12:3527.81021-82.60139233°53km/h15201m5.5m/s-69.0°C0%0hPa0V00:00:0000:00:0000:00:00
ARGUS22026-09-03 12:12:1427.81189-82.59983186°27km/h15100m4.0m/s-68.8°C0%0hPa0V00:00:0000:00:0000:00:00
ARGUS22026-09-03 12:11:5427.81292-82.59866236°18km/h14982m4.2m/s-67.9°C0%0hPa0V00:00:0000:00:0000:00:00
ARGUS22026-09-03 12:11:3227.81399-82.59785236°13km/h14870m6.3m/s-66.9°C0%0hPa0V00:00:0000:00:0000:00:00
ARGUS22026-09-03 12:11:1227.81516-82.59699220°49km/h14762m4.1m/s-66.0°C0%0hPa0V00:00:0000:00:0000:00:00
ARGUS22026-09-03 12:10:5227.81595-82.5963313km/h14625m6.2m/s-64.9°C0%0hPa0V00:00:0000:00:0000:00:00
ARGUS22026-09-03 12:10:3127.81639-82.59554233°29km/h14522m5.8m/s-64.1°C0%0hPa0V00:00:0000:00:0000:00:00
ARGUS22026-09-03 12:09:3027.81319-82.59229323°57km/h14164m10.0m/s-63.4°C0%0hPa0V00:00:0000:00:0000:00:00
ARGUS22026-09-03 12:09:1027.81082-82.59111345°51km/h14054m4.7m/s-62.8°C0%0hPa0V00:00:0000:00:0000:00:00
ARGUS22026-09-03 12:08:4927.80793-82.58952326°55km/h13961m2.3m/s-62.6°C0%0hPa0V00:00:0000:00:0000:00:00
ARGUS22026-09-03 12:08:2827.80511-82.58786334°68km/h13877m4.2m/s-62.1°C0%0hPa0V00:00:0000:00:0000:00:00
ARGUS22026-09-03 12:08:0827.80220-82.58616325°64km/h13787m2.8m/s-61.8°C0%0hPa0V00:00:0000:00:0000:00:00
ARGUS22026-09-03 12:07:4827.79983-82.58434319°58km/h13700m4.8m/s-61.3°C0%0hPa0V00:00:0000:00:0000:00:00
ARGUS22026-09-03 12:07:2727.79753-82.58217313°57km/h13610m4.2m/s-60.5°C0%0hPa0V00:00:0000:00:0000:00:00
ARGUS22026-09-03 12:07:0627.79540-82.58009333°49km/h13523m4.6m/s-60.0°C0%0hPa0V00:00:0000:00:0000:00:00
ARGUS22026-09-03 12:06:4627.79318-82.57825323°55km/h13427m3.4m/s-59.3°C0%0hPa0V00:00:0000:00:0000:00:00
ARGUS22026-09-03 12:06:2527.79099-82.57650318°44km/h13333m2.8m/s-58.6°C0%0hPa0V00:00:0000:00:0000:00:00
ARGUS22026-09-03 12:06:0427.78895-82.57473339°46km/h13238m4.1m/s-57.9°C0%0hPa0V00:00:0000:00:0000:00:00
ARGUS22026-09-03 12:05:4427.78657-82.57302331°68km/h13142m4.8m/s-57.2°C0%0hPa0V00:00:0000:00:0000:00:00
ARGUS22026-09-03 12:05:2327.78431-82.57136337°55km/h13053m3.7m/s-56.5°C0%0hPa0V00:00:0000:00:0000:00:00
ARGUS22026-09-03 12:05:0327.78189-82.56951325°55km/h12955m5.3m/s-55.8°C0%0hPa0V00:00:0000:00:0000:00:00
ARGUS22026-09-03 12:04:4227.77966-82.56770317°46km/h12861m4.0m/s-55.2°C0%0hPa0V00:00:0000:00:0000:00:00
ARGUS22026-09-03 12:04:2227.77744-82.56583319°44km/h12767m4.9m/s-54.5°C0%0hPa0V00:00:0000:00:0000:00:00
ARGUS22026-09-03 12:04:0127.77534-82.56407314°57km/h12671m5.2m/s-53.7°C0%0hPa0V00:00:0000:00:0000:00:00
ARGUS22026-09-03 12:03:4127.77323-82.56193304°55km/h12572m4.6m/s-52.8°C0%0hPa0V00:00:0000:00:0000:00:00
ARGUS22026-09-03 12:03:2127.77123-82.56001313°60km/h12477m4.8m/s-52.0°C0%0hPa0V00:00:0000:00:0000:00:00
ARGUS22026-09-03 12:03:0027.76935-82.55779307°51km/h12378m3.9m/s-51.3°C0%0hPa0V00:00:0000:00:0000:00:00
ARGUS22026-09-03 12:02:3927.76757-82.55570313°47km/h12285m5.0m/s-50.6°C0%0hPa0V00:00:0000:00:0000:00:00
ARGUS22026-09-03 12:02:1927.76574-82.55365308°46km/h12179m5.7m/s-49.7°C0%0hPa0V00:00:0000:00:0000:00:00
ARGUS22026-09-03 12:01:5827.76400-82.55157310°42km/h12073m4.6m/s-48.9°C0%0hPa0V00:00:0000:00:0000:00:00
ARGUS22026-09-03 12:01:3827.76223-82.54925327°44km/h11969m4.7m/s-47.9°C0%0hPa0V00:00:0000:00:0000:00:00
ARGUS22026-09-03 12:01:1727.76059-82.54725314°51km/h11873m5.0m/s-47.1°C0%0hPa0V00:00:0000:00:0000:00:00
ARGUS22026-09-03 12:00:5727.75886-82.54509315°58km/h11766m4.7m/s-46.2°C0%0hPa0V00:00:0000:00:0000:00:00
ARGUS22026-09-03 12:00:3627.75716-82.54284310°42km/h11659m4.0m/s-45.3°C0%0hPa0V00:00:0000:00:0000:00:00
ARGUS22026-09-03 12:00:1527.75573-82.54079299°62km/h11561m5.4m/s-44.5°C0%0hPa0V00:00:0000:00:0000:00:00
ARGUS22026-09-03 11:59:5427.75437-82.53838311°42km/h11452m4.4m/s-43.6°C0%0hPa0V00:00:0000:00:0000:00:00
ARGUS22026-09-03 11:59:3427.75307-82.53604298°53km/h11350m4.1m/s-42.7°C0%0hPa0V00:00:0000:00:0000:00:00
ARGUS22026-09-03 11:59:1427.75174-82.53354301°40km/h11248m5.2m/s-42.0°C0%0hPa0V00:00:0000:00:0000:00:00
ARGUS22026-09-03 11:58:5327.75064-82.53118295°55km/h11154m6.3m/s-41.2°C0%0hPa0V00:00:0000:00:0000:00:00
ARGUS22026-09-03 11:58:3327.74947-82.52856297°60km/h11052m4.9m/s-40.4°C0%0hPa0V00:00:0000:00:0000:00:00
ARGUS22026-09-03 11:58:1227.74845-82.52620305°47km/h10957m4.1m/s-39.6°C0%0hPa0V00:00:0000:00:0000:00:00
ARGUS22026-09-03 11:57:5227.74715-82.52380289°49km/h10861m4.6m/s-39.0°C0%0hPa0V00:00:0000:00:0000:00:00
ARGUS22026-09-03 11:57:3127.74618-82.52143299°47km/h10769m4.4m/s-38.3°C0%0hPa0V00:00:0000:00:0000:00:00
ARGUS22026-09-03 11:57:1127.74524-82.51881305°51km/h10674m4.7m/s-37.9°C0%0hPa0V00:00:0000:00:0000:00:00
ARGUS22026-09-03 11:56:5127.74451-82.51649306°47km/h10583m4.8m/s-37.1°C0%0hPa0V00:00:0000:00:0000:00:00
ARGUS22026-09-03 11:56:3027.74369-82.51399305°53km/h10491m4.3m/s-36.4°C0%0hPa0V00:00:0000:00:0000:00:00
ARGUS22026-09-03 11:56:0927.74314-82.51186290°37km/h10393m4.9m/s-35.7°C0%0hPa0V00:00:0000:00:0000:00:00
ARGUS22026-09-03 11:55:4927.74267-82.50952277°38km/h10300m5.3m/s-34.9°C0%0hPa0V00:00:0000:00:0000:00:00
ARGUS22026-09-03 11:55:2827.74230-82.50721269°35km/h10195m4.2m/s-34.2°C0%0hPa0V00:00:0000:00:0000:00:00
ARGUS22026-09-03 11:55:0727.74218-82.50513280°38km/h10099m3.6m/s-33.4°C0%0hPa0V00:00:0000:00:0000:00:00
ARGUS22026-09-03 11:54:4727.74198-82.50288241°27km/h10004m4.6m/s-32.7°C0%0hPa0V00:00:0000:00:0000:00:00
ARGUS22026-09-03 11:54:2727.74197-82.50085278°46km/h9910m5.6m/s-32.0°C0%0hPa0V00:00:0000:00:0000:00:00
ARGUS22026-09-03 11:54:0527.74187-82.49885241°35km/h9812m4.6m/s-31.3°C0%0hPa0V00:00:0000:00:0000:00:00
ARGUS22026-09-03 11:53:2527.74200-82.49496289°38km/h9621m4.2m/s-29.9°C0%0hPa0V00:00:0000:00:0000:00:00
ARGUS22026-09-03 11:53:0427.74216-82.49331249°38km/h9531m4.5m/s-29.2°C0%0hPa0V00:00:0000:00:0000:00:00
ARGUS22026-09-03 11:52:4427.74219-82.49156262°38km/h9435m3.5m/s-28.6°C0%0hPa0V00:00:0000:00:0000:00:00
ARGUS22026-09-03 11:52:2327.74230-82.49002243°35km/h9344m4.4m/s-27.9°C0%0hPa0V00:00:0000:00:0000:00:00
ARGUS22026-09-03 11:52:0327.74242-82.48851276°24km/h9251m4.6m/s-27.1°C0%0hPa0V00:00:0000:00:0000:00:00
ARGUS22026-09-03 11:51:4127.74227-82.48712261°29km/h9145m4.1m/s-26.2°C0%0hPa0V00:00:0000:00:0000:00:00
ARGUS22026-09-03 11:51:1727.74203-82.48543297°31km/h9007m4.6m/s-25.0°C0%0hPa0V00:00:0000:00:0000:00:00
ARGUS22026-09-03 11:50:5527.74186-82.48402305°22km/h8898m4.2m/s-24.3°C0%0hPa0V00:00:0000:00:0000:00:00
ARGUS22026-09-03 11:50:3427.74170-82.48277285°26km/h8795m4.6m/s-23.6°C0%0hPa0V00:00:0000:00:0000:00:00
ARGUS22026-09-03 11:50:1427.74126-82.48164288°27km/h8697m5.3m/s-22.8°C0%0hPa0V00:00:0000:00:0000:00:00
ARGUS22026-09-03 11:49:4627.74062-82.48024279°15km/h8577m3.1m/s-22.2°C0%0hPa0V00:00:0000:00:0000:00:00
ARGUS22026-09-03 11:49:2627.74010-82.47908279°16km/h8472m6.4m/s-21.6°C0%0hPa0V00:00:0000:00:0000:00:00
ARGUS22026-09-03 11:49:0527.73961-82.47806300°24km/h8370m5.3m/s-20.8°C0%0hPa0V00:00:0000:00:0000:00:00
ARGUS22026-09-03 11:48:4527.73918-82.47682271°24km/h8275m5.2m/s-20.3°C0%0hPa0V00:00:0000:00:0000:00:00
ARGUS22026-09-03 11:48:2427.73871-82.47581277°11km/h8175m5.7m/s-19.6°C0%0hPa0V00:00:0000:00:0000:00:00
ARGUS22026-09-03 11:47:0727.73593-82.47195302°31km/h7805m4.9m/s-16.1°C0%0hPa0V00:00:0000:00:0000:00:00
ARGUS22026-09-03 11:46:3827.73513-82.47020304°35km/h7666m6.4m/s-15.1°C0%0hPa0V00:00:0000:00:0000:00:00
ARGUS22026-09-03 11:46:1627.73473-82.46884279°24km/h7567m4.2m/s-14.3°C0%0hPa0V00:00:0000:00:0000:00:00
ARGUS22026-09-03 11:45:3127.73418-82.46580300°24km/h7368m4.4m/s-13.6°C0%0hPa0V00:00:0000:00:0000:00:00
ARGUS22026-09-03 11:45:0527.73363-82.46407283°31km/h7262m5.0m/s-13.4°C0%0hPa0V00:00:0000:00:0000:00:00
ARGUS22026-09-03 11:44:0327.73178-82.46078286°18km/h6960m3.7m/s-11.5°C0%0hPa0V00:00:0000:00:0000:00:00
ARGUS22026-09-03 11:43:4227.73122-82.46006332°27km/h6879m6.0m/s-10.8°C0%0hPa0V00:00:0000:00:0000:00:00
ARGUS22026-09-03 11:43:1627.73046-82.45915324°11km/h6756m4.3m/s-9.8°C0%0hPa0V00:00:0000:00:0000:00:00
ARGUS22026-09-03 11:42:5627.72986-82.45829320°24km/h6664m3.4m/s-9.2°C0%0hPa0V00:00:0000:00:0000:00:00
ARGUS22026-09-03 11:42:3527.72925-82.45737295°13km/h6573m2.4m/s-8.6°C0%0hPa0V00:00:0000:00:0000:00:00
ARGUS22026-09-03 11:42:1227.72871-82.45603289°24km/h6456m6.2m/s0°C0%0hPa0V00:00:0000:00:0000:00:00
ARGUS22026-09-03 11:40:3227.72681-82.44902305°18km/h5953m4.4m/s-5.2°C0%0hPa0V00:00:0000:00:0000:00:00
ARGUS22026-09-03 11:40:1027.72658-82.44737267°38km/h5842m4.2m/s-4.5°C0%0hPa0V00:00:0000:00:0000:00:00
ARGUS22026-09-03 11:38:5327.72627-82.44113283°29km/h5516m4.4m/s-3.9°C0%0hPa0V00:00:0000:00:0000:00:00
ARGUS22026-09-03 11:38:3427.72601-82.43937278°24km/h5417m5.4m/s-3.2°C0%0hPa0V00:00:0000:00:0000:00:00
ARGUS22026-09-03 11:38:1227.72563-82.43786292°24km/h5334m4.5m/s-2.6°C0%0hPa0V00:00:0000:00:0000:00:00
ARGUS22026-09-03 11:37:5227.72536-82.43616282°31km/h5242m4.5m/s-1.8°C0%0hPa0V00:00:0000:00:0000:00:00
ARGUS22026-09-03 11:37:3127.72495-82.43468270°26km/h5144m4.7m/s-1.5°C0%0hPa0V00:00:0000:00:0000:00:00
ARGUS22026-09-03 11:37:1027.72472-82.43333271°20km/h5057m4.7m/s-0.9°C0%0hPa0V00:00:0000:00:0000:00:00
ARGUS22026-09-03 11:36:4927.72455-82.43186299°15km/h4966m4.8m/s-0.3°C0%0hPa0V00:00:0000:00:0000:00:00
ARGUS22026-09-03 11:36:2927.72415-82.43053302°22km/h4880m3.9m/s0.2°C0%0hPa0V00:00:0000:00:0000:00:00
ARGUS22026-09-03 11:36:0827.72347-82.42928312°24km/h4778m3.8m/s0.9°C0%0hPa0V00:00:0000:00:0000:00:00
ARGUS22026-09-03 11:35:4727.72299-82.42808295°24km/h4691m3.4m/s1.4°C0%0hPa0V00:00:0000:00:0000:00:00
ARGUS22026-09-03 11:34:4527.72249-82.42455311°15km/h4396m5.4m/s2.9°C0%0hPa0V00:00:0000:00:0000:00:00
ARGUS22026-09-03 11:34:0327.72199-82.42294276°22km/h4212m6.3m/s4.1°C0%0hPa0V00:00:0000:00:0000:00:00
ARGUS22026-09-03 11:33:4327.72152-82.42231298°20km/h4120m5.1m/s5.0°C0%0hPa0V00:00:0000:00:0000:00:00
ARGUS22026-09-03 11:33:2327.72147-82.42167276°11km/h4035m3.1m/s5.5°C0%0hPa0V00:00:0000:00:0000:00:00
ARGUS22026-09-03 11:33:0227.72137-82.42073254°24km/h3951m6.6m/s5.9°C0%0hPa0V00:00:0000:00:0000:00:00
ARGUS22026-09-03 11:32:4227.72120-82.42007322°20km/h3834m3.8m/s6.7°C0%0hPa0V00:00:0000:00:0000:00:00
ARGUS22026-09-03 11:32:2127.72111-82.41951285°22km/h3732m4.2m/s7.2°C0%0hPa0V00:00:0000:00:0000:00:00
ARGUS22026-09-03 11:32:0127.72111-82.4191629°13km/h3630m3.0m/s7.7°C0%0hPa0V00:00:0000:00:0000:00:00
ARGUS22026-09-03 11:31:4027.72083-82.41881273°4km/h3528m6.6m/s8.2°C0%0hPa0V00:00:0000:00:0000:00:00
ARGUS22026-09-03 11:28:3327.71699-82.41292355°20km/h2556m4.7m/s13.6°C0%0hPa0V00:00:0000:00:0000:00:00
ARGUS22026-09-03 11:28:1227.71631-82.41226295°7km/h2446m7.4m/s13.1°C0%0hPa0V00:00:0000:00:0000:00:00
ARGUS22026-09-03 11:27:5227.71609-82.41177247°5km/h2335m5.5m/s13.9°C0%0hPa0V00:00:0000:00:0000:00:00
ARGUS22026-09-03 11:27:3127.71567-82.41162344°26km/h2216m5.0m/s14.6°C0%0hPa0V00:00:0000:00:0000:00:00
ARGUS22026-09-03 11:27:1127.71521-82.4115742°13km/h2103m5.1m/s15.0°C0%0hPa0V00:00:0000:00:0000:00:00
ARGUS22026-09-03 11:26:5127.71479-82.41134262°11km/h1992m6.1m/s15.8°C0%0hPa0V00:00:0000:00:0000:00:00
ARGUS22026-09-03 11:26:3027.71444-82.41085293°24km/h1880m6.0m/s16.4°C0%0hPa0V00:00:0000:00:0000:00:00
ARGUS22026-09-03 11:26:0827.71430-82.41035264°15km/h1755m4.8m/s16.9°C0%0hPa0V00:00:0000:00:0000:00:00
ARGUS22026-09-03 11:25:4627.71386-82.4099072°11km/h1642m-117.2m/s17.4°C0%0hPa0V00:00:0000:00:0000:00:00
ARGUS22026-09-03 11:25:1127.71292-82.40898257°5km/h1456m4.2m/s18.2°C0%0hPa0V00:00:0000:00:0000:00:00
ARGUS22026-09-03 11:24:4627.71223-82.40850317°18km/h1331m5.4m/s0°C0%0hPa0V00:00:0000:00:0000:00:00


GPX KML Map

© wettersonde.net (DO2JMG) - 2026  -  -